View Mont, North Carolina
Current Conditions -  °F | °C
As of 5:53 AM on Friday 31 Oct 2014 (Local Time) from KHKY Reporting Station
Clear Clear  
Wind Chill: 38°   Ceiling: Unl
Heat Index: 41°   Visibility: 10mi
Dew Point: 37°   Wind: 5mph
Humidity: 86%   Direction: 330°NNW
Pressure: 29.97"   Gusts: NA
Location:  35.7628°N, 81.3219°W
Report Text: KHKY 310953Z AUTO 33004KT 10SM CLR 05/03 A2997 RMK AO2 SLP136 T00500028 $
Loading
Personal Weather Stations






























Interactive Weather Map
Tropical Storm Tracking
New forecast layout! Learn more

10-Day Weather Forecast

Advertisements
Track Severe Weather on mobile